Terminal Aerodrome Forecast
Issued by NWS

Home | Current Version | Previous Version | Graphics & Text | Print | Product List | Glossary On
Versions: 1 2 3 4 5 6 7 8 9 10 11 12 13 14 15 16 17 18 19 20 21
000
FTUS41 KCLE 190256 AAA
TAFFDY
TAF AMD
KFDY 190256Z 1903/1924 08006KT 4SM BR OVC045
      TEMPO 1909/1913 2SM BR
     FM191300 VRB03KT 5SM BR OVC045
     FM191400 16004KT P6SM BKN050
     FM191800 18005KT P6SM BKN080=

USA.gov is the U.S. government's official web portal to all federal, state and local government web resources and services.